Time;durP1;ratioP1;P1;durP2;ratioP2;P2;SDS_P1;SDS_P2;PMS_P1;PMS_P2;Temp;Humidity;BMP_temperature;BMP_pressure;BME280_temperature;BME280_humidity;BME280_pressure;Samples;Min_cycle;Max_cycle;Signal;HPM_P1;HPM_P2
2022/05/16 00:00:27;;;;;;;7.13;4.78;;;;;;;;;;4972317;28;20124;-79
2022/05/16 00:02:54;;;;;;;7.00;4.50;;;;;;;;;;4975626;28;20042;-78
2022/05/16 00:05:20;;;;;;;5.78;4.38;;;;;;;;;;4974843;28;20101;-79
2022/05/16 00:07:47;;;;;;;9.02;4.60;;;;;;;;;;4976275;28;20462;-78
2022/05/16 00:10:13;;;;;;;8.13;4.32;;;;;;;;;;4996666;28;20078;-78
2022/05/16 00:12:39;;;;;;;8.00;4.53;;;;;;;;;;4997598;28;20397;-78
2022/05/16 00:15:06;;;;;;;6.80;4.75;;;;;;;;;;4987845;28;20047;-79
2022/05/16 00:17:32;;;;;;;7.43;4.50;;;;;;;;;;4994192;28;20041;-78
2022/05/16 00:19:58;;;;;;;6.47;4.35;;;;;;;;;;4985787;28;20494;-78
2022/05/16 00:22:28;;;;;;;8.15;4.70;;;;;;;;;;4991189;28;20043;-78
2022/05/16 00:24:54;;;;;;;7.45;4.63;;;;;;;;;;4985686;28;20512;-78
2022/05/16 00:27:20;;;;;;;8.35;4.70;;;;;;;;;;4986570;28;20498;-78
2022/05/16 00:29:46;;;;;;;8.20;4.72;;;;;;;;;;4985498;28;20061;-78
2022/05/16 00:32:13;;;;;;;7.28;4.38;;;;;;;;;;4986613;28;20133;-77
2022/05/16 00:34:40;;;;;;;7.50;4.85;;;;;;;;;;4989085;28;20101;-78
2022/05/16 00:37:06;;;;;;;7.85;4.50;;;;;;;;;;4979215;28;20046;-78
2022/05/16 00:39:34;;;;;;;7.60;4.22;;;;;;;;;;4981000;28;20093;-78
2022/05/16 00:42:01;;;;;;;7.22;4.45;;;;;;;;;;4982054;28;20425;-77
2022/05/16 00:44:28;;;;;;;5.38;3.90;;;;;;;;;;4988823;28;20500;-78
2022/05/16 00:46:54;;;;;;;7.15;4.20;;;;;;;;;;4998719;28;20049;-79
2022/05/16 00:49:27;;;;;;;7.00;4.50;;;;;;;;;;4986593;28;20041;-79
2022/05/16 00:51:59;;;;;;;8.25;4.20;;;;;;;;;;4984324;28;20450;-78
2022/05/16 00:54:26;;;;;;;7.38;4.82;;;;;;;;;;4981177;28;20046;-79
2022/05/16 00:56:56;;;;;;;6.38;4.13;;;;;;;;;;4985643;28;20110;-78
2022/05/16 00:59:24;;;;;;;9.00;4.20;;;;;;;;;;4991141;28;20533;-79
2022/05/16 01:04:50;;;;;;;7.80;4.50;;;;;;;;;;4978105;28;20066;-78
2022/05/16 01:07:35;;;;;;;8.23;4.38;;;;;;;;;;4985526;28;20185;-78
2022/05/16 01:10:03;;;;;;;7.53;4.60;;;;;;;;;;4985653;28;20042;-78
2022/05/16 01:12:32;;;;;;;7.47;4.13;;;;;;;;;;5000091;28;20050;-78
2022/05/16 01:14:58;;;;;;;5.13;4.22;;;;;;;;;;4988930;28;20046;-78
2022/05/16 01:17:25;;;;;;;7.05;4.80;;;;;;;;;;4990509;28;20125;-78
2022/05/16 01:19:52;;;;;;;6.35;3.95;;;;;;;;;;4983447;28;20030;-78
2022/05/16 01:22:27;;;;;;;5.18;4.13;;;;;;;;;;4990899;28;20121;-77
2022/05/16 01:24:53;;;;;;;9.00;4.57;;;;;;;;;;4983733;28;20092;-78
2022/05/16 01:27:19;;;;;;;6.70;4.50;;;;;;;;;;4978840;28;20054;-78
2022/05/16 01:29:45;;;;;;;8.02;4.63;;;;;;;;;;4981950;28;20513;-78
2022/05/16 01:32:11;;;;;;;7.57;4.60;;;;;;;;;;4976963;28;20031;-78
2022/05/16 01:34:39;;;;;;;8.60;4.45;;;;;;;;;;4983687;28;20070;-77
2022/05/16 01:37:06;;;;;;;6.35;4.75;;;;;;;;;;4978301;28;20050;-78
2022/05/16 01:39:32;;;;;;;7.88;4.50;;;;;;;;;;4972243;28;20066;-78
2022/05/16 01:41:58;;;;;;;5.75;4.18;;;;;;;;;;4992850;28;20043;-78
2022/05/16 01:44:24;;;;;;;6.72;4.38;;;;;;;;;;4980002;28;21995;-77
2022/05/16 01:46:50;;;;;;;9.00;4.65;;;;;;;;;;4983136;28;20672;-78
2022/05/16 01:49:16;;;;;;;6.25;4.18;;;;;;;;;;4985481;28;20035;-78
2022/05/16 01:51:42;;;;;;;6.78;4.63;;;;;;;;;;4990362;28;20842;-78
2022/05/16 01:54:11;;;;;;;8.02;4.47;;;;;;;;;;4980181;28;20053;-78
2022/05/16 01:56:37;;;;;;;7.50;4.45;;;;;;;;;;4985002;28;20047;-78
2022/05/16 01:59:04;;;;;;;5.15;4.32;;;;;;;;;;4984539;28;20066;-78
2022/05/16 02:01:31;;;;;;;7.72;4.40;;;;;;;;;;4986577;28;20054;-78
2022/05/16 02:03:57;;;;;;;7.95;5.00;;;;;;;;;;4980703;28;20092;-78
2022/05/16 02:06:25;;;;;;;8.30;4.72;;;;;;;;;;4987457;28;20120;-78
2022/05/16 02:08:51;;;;;;;9.20;4.70;;;;;;;;;;4982036;28;20042;-78
2022/05/16 02:11:20;;;;;;;7.63;4.32;;;;;;;;;;4976813;28;20520;-78
2022/05/16 02:13:46;;;;;;;9.35;5.10;;;;;;;;;;4978425;28;20082;-78
2022/05/16 02:16:13;;;;;;;7.35;4.85;;;;;;;;;;4978601;28;20050;-78
2022/05/16 02:18:42;;;;;;;7.28;4.88;;;;;;;;;;4984245;28;20053;-78
2022/05/16 02:26:46;;;;;;;7.43;4.78;;;;;;;;;;4979536;28;20069;-78
2022/05/16 02:29:12;;;;;;;7.32;5.30;;;;;;;;;;4978677;28;20143;-78
2022/05/16 02:31:38;;;;;;;7.78;4.32;;;;;;;;;;4984016;28;20103;-78
2022/05/16 02:34:04;;;;;;;7.57;4.80;;;;;;;;;;4996133;28;20488;-78
2022/05/16 02:36:30;;;;;;;6.88;4.80;;;;;;;;;;4979513;28;20055;-78
2022/05/16 02:38:56;;;;;;;7.68;5.15;;;;;;;;;;4998232;28;20046;-79
2022/05/16 02:41:22;;;;;;;7.75;5.20;;;;;;;;;;4992303;28;20119;-78
2022/05/16 02:43:48;;;;;;;8.30;5.20;;;;;;;;;;4979602;28;20053;-78
2022/05/16 02:46:14;;;;;;;6.45;5.50;;;;;;;;;;4988767;28;20042;-78
2022/05/16 02:48:40;;;;;;;8.75;5.70;;;;;;;;;;4996674;28;20049;-77
2022/05/16 02:51:06;;;;;;;7.55;5.00;;;;;;;;;;4985133;28;20073;-78
2022/05/16 02:53:32;;;;;;;7.50;4.75;;;;;;;;;;4985325;28;20478;-78
2022/05/16 02:55:58;;;;;;;7.45;5.13;;;;;;;;;;4977995;28;20045;-78
2022/05/16 02:58:24;;;;;;;7.00;5.50;;;;;;;;;;4985138;28;20034;-78
2022/05/16 03:00:50;;;;;;;8.18;5.50;;;;;;;;;;4983723;28;20466;-78
2022/05/16 03:03:16;;;;;;;6.70;5.03;;;;;;;;;;4979238;28;20045;-78
2022/05/16 03:05:42;;;;;;;7.68;5.15;;;;;;;;;;4987158;28;20058;-78
2022/05/16 03:08:08;;;;;;;9.00;5.43;;;;;;;;;;4986195;28;20043;-78
2022/05/16 03:10:35;;;;;;;7.32;5.13;;;;;;;;;;4976586;28;20138;-78
2022/05/16 03:13:01;;;;;;;8.50;5.35;;;;;;;;;;4997934;28;20046;-78
2022/05/16 03:15:30;;;;;;;9.10;5.60;;;;;;;;;;4980746;28;20050;-78
2022/05/16 03:17:56;;;;;;;8.73;5.60;;;;;;;;;;4983288;28;20042;-78
2022/05/16 03:20:22;;;;;;;7.78;5.15;;;;;;;;;;4985143;28;20054;-77
2022/05/16 03:22:48;;;;;;;6.43;5.10;;;;;;;;;;4978015;28;20112;-77
2022/05/16 03:25:14;;;;;;;7.82;5.68;;;;;;;;;;4977553;28;20142;-78
2022/05/16 03:27:40;;;;;;;9.07;5.38;;;;;;;;;;4975314;28;20577;-78
2022/05/16 03:30:08;;;;;;;7.90;5.47;;;;;;;;;;4985551;28;20058;-78
2022/05/16 03:32:34;;;;;;;6.70;5.20;;;;;;;;;;4975198;28;20053;-77
2022/05/16 03:35:00;;;;;;;7.32;5.45;;;;;;;;;;4981966;28;20089;-78
2022/05/16 03:37:26;;;;;;;7.15;5.40;;;;;;;;;;4977131;28;20462;-78
2022/05/16 03:42:39;;;;;;;7.28;5.68;;;;;;;;;;4980119;28;20137;-78
2022/05/16 03:45:05;;;;;;;8.82;5.28;;;;;;;;;;4978809;28;20193;-78
2022/05/16 03:47:31;;;;;;;7.63;5.15;;;;;;;;;;4971277;28;20823;-78
2022/05/16 03:49:57;;;;;;;9.50;5.47;;;;;;;;;;4990360;28;20406;-78
2022/05/16 03:52:29;;;;;;;6.13;4.72;;;;;;;;;;4979290;28;20035;-78
2022/05/16 03:54:56;;;;;;;8.43;5.07;;;;;;;;;;4989107;28;20451;-78
2022/05/16 03:57:22;;;;;;;9.40;5.18;;;;;;;;;;4986120;28;20039;-78
2022/05/16 03:59:48;;;;;;;6.35;4.80;;;;;;;;;;4997166;28;20042;-78
2022/05/16 04:02:14;;;;;;;7.55;5.32;;;;;;;;;;4977377;28;20050;-78
2022/05/16 04:04:41;;;;;;;7.50;4.72;;;;;;;;;;4989269;28;20403;-77
2022/05/16 04:07:08;;;;;;;7.15;4.93;;;;;;;;;;4979523;28;20053;-78
2022/05/16 04:09:34;;;;;;;8.63;5.20;;;;;;;;;;4979773;28;20050;-78
2022/05/16 04:12:01;;;;;;;8.32;5.20;;;;;;;;;;4991416;28;20055;-78
2022/05/16 04:14:27;;;;;;;9.65;4.95;;;;;;;;;;4975522;28;20047;-78
2022/05/16 04:16:53;;;;;;;6.80;5.30;;;;;;;;;;4983968;28;20068;-77
2022/05/16 04:19:19;;;;;;;6.55;4.88;;;;;;;;;;4982803;28;20117;-77
2022/05/16 04:21:45;;;;;;;8.38;5.15;;;;;;;;;;4980291;28;20140;-78
2022/05/16 04:24:12;;;;;;;8.00;4.78;;;;;;;;;;4983996;28;20047;-77
2022/05/16 04:26:38;;;;;;;5.97;4.47;;;;;;;;;;4984774;28;20860;-77
2022/05/16 04:29:04;;;;;;;6.85;4.95;;;;;;;;;;4989124;28;20398;-77
2022/05/16 04:31:30;;;;;;;5.32;4.72;;;;;;;;;;4987672;28;20113;-78
2022/05/16 04:33:56;;;;;;;7.63;5.05;;;;;;;;;;4974597;28;20047;-77
2022/05/16 04:36:22;;;;;;;6.88;4.57;;;;;;;;;;5016499;28;20057;-77
2022/05/16 04:38:48;;;;;;;8.10;4.57;;;;;;;;;;4986954;28;20053;-78
2022/05/16 04:43:58;;;;;;;7.38;4.53;;;;;;;;;;4991951;28;20587;-77
2022/05/16 04:46:24;;;;;;;6.15;4.63;;;;;;;;;;4982355;28;20146;-78
2022/05/16 04:48:51;;;;;;;5.70;4.47;;;;;;;;;;4985335;28;20050;-78
2022/05/16 04:51:17;;;;;;;6.82;4.22;;;;;;;;;;4979173;28;20075;-78
2022/05/16 04:53:43;;;;;;;6.95;4.38;;;;;;;;;;4982243;28;20054;-77
2022/05/16 04:56:09;;;;;;;5.95;4.68;;;;;;;;;;4973136;28;20459;-78
2022/05/16 04:58:35;;;;;;;8.40;4.63;;;;;;;;;;4984256;28;20481;-78
2022/05/16 05:01:01;;;;;;;7.95;4.18;;;;;;;;;;4986081;28;20050;-78
2022/05/16 05:03:27;;;;;;;6.53;4.50;;;;;;;;;;4977712;28;20483;-78
2022/05/16 05:05:53;;;;;;;6.32;4.25;;;;;;;;;;4983315;28;20449;-77
2022/05/16 05:08:20;;;;;;;8.20;4.68;;;;;;;;;;4986343;28;20077;-77
2022/05/16 05:16:17;;;;;;;4.53;4.05;;;;;;;;;;4990585;28;20129;-78
2022/05/16 05:18:47;;;;;;;7.93;4.45;;;;;;;;;;4979091;28;20097;-78
2022/05/16 05:21:13;;;;;;;5.50;4.10;;;;;;;;;;4985205;28;20331;-78
2022/05/16 05:23:40;;;;;;;5.95;4.10;;;;;;;;;;4982362;28;20050;-77
2022/05/16 05:26:06;;;;;;;6.72;4.07;;;;;;;;;;4974570;28;20051;-78
2022/05/16 05:28:34;;;;;;;5.65;4.18;;;;;;;;;;4988610;28;20423;-78
2022/05/16 05:31:00;;;;;;;6.82;3.95;;;;;;;;;;4976062;28;20050;-78
2022/05/16 05:33:27;;;;;;;6.25;4.10;;;;;;;;;;4989179;28;20502;-77
2022/05/16 05:35:53;;;;;;;5.80;3.90;;;;;;;;;;4980003;28;20085;-77
2022/05/16 05:38:19;;;;;;;6.57;3.95;;;;;;;;;;4986255;28;20045;-77
2022/05/16 05:40:50;;;;;;;4.40;3.47;;;;;;;;;;4985036;28;20054;-77
2022/05/16 05:43:16;;;;;;;6.10;3.97;;;;;;;;;;4984943;28;20479;-77
2022/05/16 05:45:44;;;;;;;6.30;3.70;;;;;;;;;;4984462;28;20070;-78
2022/05/16 05:48:10;;;;;;;8.55;4.10;;;;;;;;;;4978434;28;20073;-77
2022/05/16 05:50:36;;;;;;;6.50;4.10;;;;;;;;;;4995524;28;20046;-78
2022/05/16 05:53:02;;;;;;;6.53;4.30;;;;;;;;;;4980519;28;20623;-78
2022/05/16 05:55:28;;;;;;;5.22;3.85;;;;;;;;;;4984809;28;20533;-78
2022/05/16 05:57:55;;;;;;;5.78;3.92;;;;;;;;;;4982630;28;20070;-78
2022/05/16 06:00:24;;;;;;;5.55;3.80;;;;;;;;;;4979447;28;20478;-78
2022/05/16 06:02:50;;;;;;;6.18;4.15;;;;;;;;;;4985564;28;20641;-77
2022/05/16 06:05:18;;;;;;;6.03;3.75;;;;;;;;;;4986934;28;20503;-78
2022/05/16 06:07:44;;;;;;;7.43;3.80;;;;;;;;;;4982006;28;20041;-79
2022/05/16 06:10:11;;;;;;;6.28;4.00;;;;;;;;;;4988203;28;20043;-78
2022/05/16 06:12:38;;;;;;;5.70;3.60;;;;;;;;;;4986287;28;20449;-78
2022/05/16 06:15:05;;;;;;;6.30;3.85;;;;;;;;;;4975199;28;20085;-79
2022/05/16 06:17:35;;;;;;;5.45;3.30;;;;;;;;;;4981757;28;20425;-78
2022/05/16 06:20:02;;;;;;;6.22;3.83;;;;;;;;;;4990259;28;20051;-78
2022/05/16 06:22:34;;;;;;;6.43;4.00;;;;;;;;;;4976661;28;20129;-78
2022/05/16 06:27:45;;;;;;;9.00;4.00;;;;;;;;;;4989150;28;20086;-78
2022/05/16 06:30:12;;;;;;;7.82;3.78;;;;;;;;;;4975807;28;20488;-78
2022/05/16 06:32:38;;;;;;;6.32;3.63;;;;;;;;;;4982521;28;20121;-78
2022/05/16 06:35:04;;;;;;;9.25;3.88;;;;;;;;;;4985165;28;20448;-78
2022/05/16 06:37:33;;;;;;;7.03;4.40;;;;;;;;;;5011599;28;20050;-79
2022/05/16 06:39:59;;;;;;;5.65;3.90;;;;;;;;;;4979619;28;20050;-78
2022/05/16 06:42:25;;;;;;;6.95;4.20;;;;;;;;;;4986816;28;20398;-79
2022/05/16 06:44:52;;;;;;;5.68;3.55;;;;;;;;;;4988621;28;20482;-79
2022/05/16 06:47:18;;;;;;;7.57;4.00;;;;;;;;;;4994061;28;20047;-77
2022/05/16 06:49:44;;;;;;;7.32;3.92;;;;;;;;;;4982023;28;20039;-77
2022/05/16 06:52:10;;;;;;;6.95;4.00;;;;;;;;;;4987296;28;25125;-77
2022/05/16 06:54:37;;;;;;;7.10;4.03;;;;;;;;;;4991467;28;20045;-78
2022/05/16 06:57:05;;;;;;;9.60;4.00;;;;;;;;;;4988182;28;20054;-78
2022/05/16 06:59:32;;;;;;;6.93;4.20;;;;;;;;;;4993041;28;20074;-78
2022/05/16 07:01:58;;;;;;;7.05;3.72;;;;;;;;;;4996274;28;20046;-77
2022/05/16 07:04:24;;;;;;;4.88;3.60;;;;;;;;;;4994193;28;20181;-79
2022/05/16 07:06:50;;;;;;;6.55;3.58;;;;;;;;;;4991717;28;20144;-76
2022/05/16 07:09:22;;;;;;;5.25;3.97;;;;;;;;;;4995217;28;20048;-77
2022/05/16 07:11:51;;;;;;;4.55;3.72;;;;;;;;;;4996353;28;20049;-77
2022/05/16 07:14:17;;;;;;;6.65;4.10;;;;;;;;;;4991306;28;20215;-77
2022/05/16 07:16:42;;;;;;;7.00;3.85;;;;;;;;;;4988659;28;20093;-76
2022/05/16 07:19:09;;;;;;;6.90;3.90;;;;;;;;;;4986312;28;20050;-77
2022/05/16 07:21:35;;;;;;;6.53;3.63;;;;;;;;;;4992602;28;20045;-78
2022/05/16 07:24:01;;;;;;;5.25;3.50;;;;;;;;;;4988969;28;20430;-77
2022/05/16 07:29:12;;;;;;;6.47;3.63;;;;;;;;;;4982571;28;20135;-77
2022/05/16 07:31:38;;;;;;;7.55;3.65;;;;;;;;;;4999702;28;20053;-77
2022/05/16 07:34:04;;;;;;;5.50;3.80;;;;;;;;;;4975352;28;20134;-77
2022/05/16 07:36:30;;;;;;;6.97;3.60;;;;;;;;;;4987017;28;20050;-78
2022/05/16 07:38:58;;;;;;;8.68;3.60;;;;;;;;;;4991902;28;20105;-77
2022/05/16 07:41:25;;;;;;;6.35;3.78;;;;;;;;;;4996929;28;20043;-79
2022/05/16 07:43:51;;;;;;;7.50;3.90;;;;;;;;;;4981729;28;20051;-78
2022/05/16 07:46:17;;;;;;;7.43;3.97;;;;;;;;;;4983498;28;20403;-78
2022/05/16 07:48:43;;;;;;;9.25;3.85;;;;;;;;;;4983974;28;20038;-79
2022/05/16 07:51:09;;;;;;;5.40;3.92;;;;;;;;;;4988894;28;20045;-78
2022/05/16 07:53:35;;;;;;;6.82;3.95;;;;;;;;;;4984646;28;20042;-79
2022/05/16 07:56:03;;;;;;;9.40;4.30;;;;;;;;;;4981936;28;20042;-79
2022/05/16 07:58:29;;;;;;;8.05;3.88;;;;;;;;;;4982500;28;20053;-78
2022/05/16 08:00:56;;;;;;;4.88;3.75;;;;;;;;;;4988679;28;20054;-78
2022/05/16 08:03:23;;;;;;;6.60;3.70;;;;;;;;;;4988843;28;20444;-79
2022/05/16 08:05:52;;;;;;;5.18;3.83;;;;;;;;;;4988378;28;20097;-78
2022/05/16 08:11:03;;;;;;;6.18;3.83;;;;;;;;;;4975289;28;20444;-80
2022/05/16 08:13:35;;;;;;;6.95;3.92;;;;;;;;;;4987405;28;20053;-80
2022/05/16 08:16:01;;;;;;;8.38;4.15;;;;;;;;;;4985486;28;20046;-79
2022/05/16 08:18:27;;;;;;;6.70;3.70;;;;;;;;;;4982450;28;20053;-79
2022/05/16 08:20:53;;;;;;;8.13;4.10;;;;;;;;;;4979751;28;20134;-80
2022/05/16 08:23:27;;;;;;;7.05;3.72;;;;;;;;;;4985861;28;20121;-79
2022/05/16 08:25:55;;;;;;;6.45;3.95;;;;;;;;;;5001223;28;20042;-79
2022/05/16 08:28:22;;;;;;;7.07;3.75;;;;;;;;;;4988928;28;20435;-79
2022/05/16 08:30:48;;;;;;;7.80;3.80;;;;;;;;;;4987286;28;20058;-78
2022/05/16 08:33:15;;;;;;;7.65;3.55;;;;;;;;;;4988753;28;20339;-80
2022/05/16 08:35:41;;;;;;;8.63;3.63;;;;;;;;;;4977956;28;20161;-81
2022/05/16 08:41:10;;;;;;;9.23;4.03;;;;;;;;;;4984733;28;20050;-81
2022/05/16 08:43:55;;;;;;;9.60;4.00;;;;;;;;;;4991853;28;20049;-80
2022/05/16 08:46:24;;;;;;;6.53;3.92;;;;;;;;;;4980439;28;20042;-81
2022/05/16 08:48:53;;;;;;;9.85;4.20;;;;;;;;;;4995043;28;20050;-83
2022/05/16 08:51:19;;;;;;;4.95;3.90;;;;;;;;;;4994167;28;20051;-79
2022/05/16 08:53:57;;;;;;;7.75;3.80;;;;;;;;;;4978938;28;20074;-79
2022/05/16 08:56:29;;;;;;;7.72;4.05;;;;;;;;;;4980029;28;20153;-79
2022/05/16 08:59:03;;;;;;;6.50;4.00;;;;;;;;;;4981175;28;20508;-79
2022/05/16 09:01:33;;;;;;;8.13;3.83;;;;;;;;;;4977378;28;20321;-77
2022/05/16 09:04:12;;;;;;;5.35;3.33;;;;;;;;;;4980637;28;20054;-77
2022/05/16 09:06:40;;;;;;;6.53;4.03;;;;;;;;;;4991444;28;20038;-77
2022/05/16 09:09:14;;;;;;;8.88;3.63;;;;;;;;;;4984795;28;20053;-78
2022/05/16 09:11:44;;;;;;;6.32;3.90;;;;;;;;;;4974043;28;20050;-77
2022/05/16 09:14:16;;;;;;;6.72;4.00;;;;;;;;;;4979202;28;20438;-79
2022/05/16 09:17:00;;;;;;;8.13;3.53;;;;;;;;;;4977835;28;20479;-79
2022/05/16 09:19:50;;;;;;;6.70;4.00;;;;;;;;;;4983751;28;20542;-78
2022/05/16 09:22:21;;;;;;;6.68;3.80;;;;;;;;;;4978676;28;20046;-78
2022/05/16 09:25:02;;;;;;;9.25;3.75;;;;;;;;;;4977942;28;20147;-78
2022/05/16 09:30:17;;;;;;;10.52;3.80;;;;;;;;;;4986959;28;20130;-78
2022/05/16 09:32:53;;;;;;;9.07;4.07;;;;;;;;;;4977291;28;20089;-78
2022/05/16 09:35:24;;;;;;;6.75;3.47;;;;;;;;;;4995146;28;20047;-79
2022/05/16 09:37:51;;;;;;;8.02;3.80;;;;;;;;;;4984985;28;20126;-80
2022/05/16 09:40:20;;;;;;;7.97;4.25;;;;;;;;;;4997673;28;20057;-78
2022/05/16 09:42:50;;;;;;;8.15;4.18;;;;;;;;;;4974708;28;20054;-78
2022/05/16 09:45:23;;;;;;;7.65;3.85;;;;;;;;;;5009635;28;20043;-78
2022/05/16 09:47:49;;;;;;;7.70;3.80;;;;;;;;;;4981222;28;20478;-78
2022/05/16 09:50:27;;;;;;;9.43;4.18;;;;;;;;;;4981234;28;20038;-78
2022/05/16 09:53:04;;;;;;;6.75;3.90;;;;;;;;;;4988754;28;20046;-78
2022/05/16 09:55:33;;;;;;;9.88;3.67;;;;;;;;;;4978085;28;20058;-78
2022/05/16 09:58:11;;;;;;;9.40;4.03;;;;;;;;;;4990063;28;20096;-78
2022/05/16 10:00:41;;;;;;;6.00;3.67;;;;;;;;;;4983723;28;20494;-78
2022/05/16 10:03:22;;;;;;;4.82;3.70;;;;;;;;;;4991713;28;20065;-78
2022/05/16 10:05:51;;;;;;;7.63;4.18;;;;;;;;;;4991158;28;20518;-78
2022/05/16 10:08:28;;;;;;;7.63;4.35;;;;;;;;;;4973382;28;20106;-78
2022/05/16 10:10:55;;;;;;;7.07;4.47;;;;;;;;;;4991114;28;20120;-77
2022/05/16 10:13:21;;;;;;;6.78;4.38;;;;;;;;;;5005304;28;20046;-78
2022/05/16 10:15:50;;;;;;;10.07;4.20;;;;;;;;;;4976333;28;20439;-78
2022/05/16 10:18:18;;;;;;;9.20;4.55;;;;;;;;;;4976739;28;20051;-77
2022/05/16 10:20:46;;;;;;;6.45;4.40;;;;;;;;;;4987740;28;20085;-78
2022/05/16 10:23:19;;;;;;;6.78;4.22;;;;;;;;;;4983426;28;20129;-78
2022/05/16 10:25:47;;;;;;;6.78;4.70;;;;;;;;;;4988084;28;20112;-78
2022/05/16 10:28:17;;;;;;;8.52;4.80;;;;;;;;;;4989258;28;20046;-77
2022/05/16 10:33:30;;;;;;;8.52;4.97;;;;;;;;;;4987934;28;20042;-77
2022/05/16 10:36:01;;;;;;;7.97;4.63;;;;;;;;;;4986832;28;20076;-77
2022/05/16 10:38:37;;;;;;;9.55;4.30;;;;;;;;;;4978524;28;20376;-77
2022/05/16 10:41:07;;;;;;;10.00;4.43;;;;;;;;;;4980096;28;20098;-78
2022/05/16 10:43:52;;;;;;;7.28;4.47;;;;;;;;;;4970581;28;20146;-77
2022/05/16 10:46:19;;;;;;;8.55;4.88;;;;;;;;;;4985391;28;20097;-78
2022/05/16 10:48:48;;;;;;;7.90;5.07;;;;;;;;;;4995132;28;20082;-78
2022/05/16 10:51:21;;;;;;;7.25;5.05;;;;;;;;;;4983022;28;20050;-78
2022/05/16 10:53:48;;;;;;;;;;;;;;;;;;4993070;28;20509;-78
2022/05/16 10:56:18;;;;;;;6.85;5.13;;;;;;;;;;4979310;28;19922;-78
2022/05/16 10:59:03;;;;;;;6.35;5.07;;;;;;;;;;4983538;28;20057;-78
2022/05/16 11:01:32;;;;;;;6.50;4.50;;;;;;;;;;4974071;28;20518;-78
2022/05/16 11:04:07;;;;;;;7.72;4.85;;;;;;;;;;4981779;28;20522;-78
2022/05/16 11:06:52;;;;;;;7.53;5.25;;;;;;;;;;4977875;28;20038;-78
2022/05/16 11:09:24;;;;;;;8.68;5.65;;;;;;;;;;4986173;28;20041;-78
2022/05/16 11:12:02;;;;;;;6.97;5.05;;;;;;;;;;4990608;28;20054;-78
2022/05/16 11:14:33;;;;;;;9.07;5.32;;;;;;;;;;4980969;28;20054;-77
2022/05/16 11:17:04;;;;;;;9.00;5.47;;;;;;;;;;4990144;28;20046;-77
2022/05/16 11:19:48;;;;;;;6.30;5.30;;;;;;;;;;4983539;28;20486;-78
2022/05/16 11:22:25;;;;;;;7.85;5.10;;;;;;;;;;4973929;28;20122;-78
2022/05/16 11:25:06;;;;;;;8.60;5.50;;;;;;;;;;4973667;28;20065;-78
2022/05/16 11:27:39;;;;;;;9.63;5.35;;;;;;;;;;4974623;28;20047;-78
2022/05/16 11:30:05;;;;;;;10.85;5.40;;;;;;;;;;4981004;28;20125;-76
2022/05/16 11:32:50;;;;;;;9.40;6.57;;;;;;;;;;4987244;28;20093;-76
2022/05/16 11:35:21;;;;;;;8.45;5.95;;;;;;;;;;4978702;28;20090;-76
2022/05/16 11:37:56;;;;;;;9.88;6.38;;;;;;;;;;4972812;28;20134;-76
2022/05/16 11:40:31;;;;;;;11.52;6.78;;;;;;;;;;4983318;28;20085;-76
2022/05/16 11:43:00;;;;;;;13.00;6.90;;;;;;;;;;4976866;28;20043;-76
2022/05/16 11:45:32;;;;;;;11.23;6.95;;;;;;;;;;5007514;28;20450;-75
2022/05/16 11:48:17;;;;;;;9.48;6.72;;;;;;;;;;4989402;28;20083;-78
2022/05/16 11:50:54;;;;;;;10.10;6.60;;;;;;;;;;4986048;28;20486;-79
2022/05/16 11:53:23;;;;;;;9.90;6.53;;;;;;;;;;4979453;28;20042;-76
2022/05/16 12:01:36;;;;;;;10.85;6.95;;;;;;;;;;4993391;28;20086;-78
2022/05/16 12:04:06;;;;;;;7.60;6.78;;;;;;;;;;4981666;28;20050;-77
2022/05/16 12:06:36;;;;;;;11.68;8.10;;;;;;;;;;4991159;28;21928;-77
2022/05/16 12:09:15;;;;;;;13.30;8.60;;;;;;;;;;4976765;28;20045;-77
2022/05/16 12:12:00;;;;;;;10.10;7.75;;;;;;;;;;4996398;28;20066;-77
2022/05/16 12:14:32;;;;;;;12.05;9.02;;;;;;;;;;4971464;28;20126;-77
2022/05/16 12:17:07;;;;;;;10.35;8.77;;;;;;;;;;4980246;28;20054;-77
2022/05/16 12:19:37;;;;;;;11.65;9.13;;;;;;;;;;4977265;28;20053;-77
2022/05/16 12:22:05;;;;;;;9.63;8.63;;;;;;;;;;4985115;28;20507;-77
2022/05/16 12:24:34;;;;;;;11.20;8.75;;;;;;;;;;4969124;28;20047;-77
2022/05/16 12:27:00;;;;;;;10.68;8.23;;;;;;;;;;4980998;28;20053;-77
2022/05/16 12:29:31;;;;;;;8.77;7.90;;;;;;;;;;4979973;28;20058;-77
2022/05/16 12:31:58;;;;;;;8.82;7.93;;;;;;;;;;4986961;28;20050;-79
2022/05/16 12:34:30;;;;;;;8.95;7.53;;;;;;;;;;4979599;28;20555;-81
2022/05/16 12:36:57;;;;;;;8.82;7.05;;;;;;;;;;4991452;28;20125;-79
2022/05/16 12:39:32;;;;;;;7.88;7.07;;;;;;;;;;4980983;28;20054;-79
2022/05/16 12:42:11;;;;;;;8.30;7.15;;;;;;;;;;4982671;28;20112;-77
2022/05/16 12:44:54;;;;;;;8.27;7.20;;;;;;;;;;4985666;28;20376;-77
2022/05/16 12:47:25;;;;;;;8.85;7.65;;;;;;;;;;4981371;28;20047;-77
2022/05/16 12:50:07;;;;;;;7.60;6.80;;;;;;;;;;4983602;28;20054;-77
2022/05/16 12:52:36;;;;;;;11.20;7.55;;;;;;;;;;4985759;28;20558;-78
2022/05/16 12:55:02;;;;;;;10.15;8.07;;;;;;;;;;4985821;28;20034;-79
2022/05/16 12:57:46;;;;;;;8.50;7.40;;;;;;;;;;4996171;28;20050;-76
2022/05/16 13:00:30;;;;;;;9.23;7.22;;;;;;;;;;4981476;28;20407;-76
2022/05/16 13:02:56;;;;;;;9.88;6.90;;;;;;;;;;4976902;28;20053;-76
2022/05/16 13:05:45;;;;;;;8.98;6.45;;;;;;;;;;4985214;28;20042;-76
2022/05/16 13:08:17;;;;;;;10.80;7.22;;;;;;;;;;4974792;28;20043;-77
2022/05/16 13:10:49;;;;;;;10.93;6.70;;;;;;;;;;4977309;28;20050;-77
2022/05/16 13:13:30;;;;;;;12.05;7.65;;;;;;;;;;4981786;28;20039;-83
2022/05/16 13:16:12;;;;;;;11.70;6.50;;;;;;;;;;4979624;28;20075;-80
2022/05/16 13:18:44;;;;;;;10.45;7.22;;;;;;;;;;4990313;28;20038;-79
2022/05/16 13:21:13;;;;;;;10.23;7.40;;;;;;;;;;4987381;28;20057;-78
2022/05/16 13:23:39;;;;;;;12.77;8.23;;;;;;;;;;4982465;28;20305;-79
2022/05/16 13:31:39;;;;;;;11.57;8.27;;;;;;;;;;4982090;28;20444;-79
2022/05/16 13:34:05;;;;;;;9.20;8.25;;;;;;;;;;4990470;28;20518;-79
2022/05/16 13:36:32;;;;;;;11.23;8.40;;;;;;;;;;4986266;28;20038;-79
2022/05/16 13:39:00;;;;;;;12.60;8.60;;;;;;;;;;4978632;28;20470;-79
2022/05/16 13:41:28;;;;;;;12.70;8.43;;;;;;;;;;4990001;28;20050;-78
2022/05/16 13:43:54;;;;;;;14.15;9.00;;;;;;;;;;4988465;28;20046;-79
2022/05/16 13:46:21;;;;;;;12.57;8.90;;;;;;;;;;4980670;28;20069;-81
2022/05/16 13:48:57;;;;;;;13.70;8.93;;;;;;;;;;4981746;28;20050;-78
2022/05/16 13:51:23;;;;;;;14.80;8.88;;;;;;;;;;4972248;28;20430;-79
2022/05/16 13:53:49;;;;;;;11.07;7.88;;;;;;;;;;5007871;28;20043;-79
2022/05/16 13:56:15;;;;;;;13.27;8.43;;;;;;;;;;4984074;28;20570;-79
2022/05/16 13:58:41;;;;;;;12.75;8.23;;;;;;;;;;4980305;28;20082;-77
2022/05/16 14:01:12;;;;;;;10.43;7.60;;;;;;;;;;4980520;28;20441;-77
2022/05/16 14:03:39;;;;;;;12.95;8.68;;;;;;;;;;4997203;28;20570;-77
2022/05/16 14:06:11;;;;;;;15.07;8.55;;;;;;;;;;4982790;28;20035;-79
2022/05/16 14:08:40;;;;;;;12.70;8.32;;;;;;;;;;4978553;28;20049;-80
2022/05/16 14:11:11;;;;;;;13.00;8.73;;;;;;;;;;5003886;28;20058;-80
2022/05/16 14:13:39;;;;;;;14.82;8.40;;;;;;;;;;4976561;28;20495;-80
2022/05/16 14:16:07;;;;;;;17.20;8.90;;;;;;;;;;4975466;28;20049;-79
2022/05/16 14:18:42;;;;;;;14.68;8.85;;;;;;;;;;4984422;28;20490;-78
2022/05/16 14:21:20;;;;;;;14.00;8.35;;;;;;;;;;4980938;28;20046;-79
2022/05/16 14:23:48;;;;;;;15.48;9.40;;;;;;;;;;4979317;28;20451;-78
2022/05/16 14:26:39;;;;;;;15.63;9.68;;;;;;;;;;4984775;28;20046;-77
2022/05/16 14:29:14;;;;;;;16.92;9.25;;;;;;;;;;4980618;28;20491;-78
2022/05/16 14:31:47;;;;;;;16.73;8.52;;;;;;;;;;4988326;28;20065;-78
2022/05/16 14:34:13;;;;;;;;;;;;;;;;;;4995816;28;20108;-78
2022/05/16 14:36:41;;;;;;;13.20;8.70;;;;;;;;;;4991885;28;19969;-79
2022/05/16 14:39:19;;;;;;;15.18;8.20;;;;;;;;;;4973027;28;20065;-78
2022/05/16 14:41:51;;;;;;;14.55;7.95;;;;;;;;;;4971269;28;20534;-77
2022/05/16 14:44:29;;;;;;;12.20;7.60;;;;;;;;;;4974834;28;20050;-78
2022/05/16 14:46:57;;;;;;;14.80;8.30;;;;;;;;;;4975219;28;20054;-78
2022/05/16 14:49:23;;;;;;;14.93;8.85;;;;;;;;;;4987932;28;20047;-79
2022/05/16 14:51:50;;;;;;;14.93;8.50;;;;;;;;;;5006115;28;20054;-79
2022/05/16 14:54:20;;;;;;;14.05;8.50;;;;;;;;;;4995057;28;20510;-78
2022/05/16 14:56:46;;;;;;;15.02;8.70;;;;;;;;;;4991408;28;20050;-78
2022/05/16 14:59:12;;;;;;;13.65;8.63;;;;;;;;;;4989392;28;20057;-78
2022/05/16 15:04:23;;;;;;;14.32;8.95;;;;;;;;;;4982185;28;20042;-79
2022/05/16 15:06:49;;;;;;;15.65;9.52;;;;;;;;;;4986208;28;20047;-78
2022/05/16 15:09:19;;;;;;;16.27;9.05;;;;;;;;;;4986531;28;20034;-79
2022/05/16 15:11:45;;;;;;;13.98;8.55;;;;;;;;;;4976341;28;20512;-80
2022/05/16 15:14:11;;;;;;;15.40;9.20;;;;;;;;;;4977869;28;20050;-77
2022/05/16 15:16:39;;;;;;;17.40;10.48;;;;;;;;;;4983789;28;20054;-77
2022/05/16 15:19:07;;;;;;;17.50;11.13;;;;;;;;;;4987789;28;20497;-77
2022/05/16 15:21:34;;;;;;;16.77;10.80;;;;;;;;;;4992312;28;20050;-77
2022/05/16 15:24:03;;;;;;;14.05;10.15;;;;;;;;;;4984365;28;20628;-77
2022/05/16 15:26:29;;;;;;;17.95;10.20;;;;;;;;;;4992895;28;20541;-77
2022/05/16 15:28:56;;;;;;;14.77;9.88;;;;;;;;;;4989957;28;20046;-76
2022/05/16 15:31:22;;;;;;;15.77;8.82;;;;;;;;;;4972105;28;20837;-79
2022/05/16 15:33:48;;;;;;;13.10;8.63;;;;;;;;;;4981861;28;20104;-78
2022/05/16 15:36:20;;;;;;;15.50;8.23;;;;;;;;;;4991237;28;20503;-79
2022/05/16 15:38:48;;;;;;;16.80;8.45;;;;;;;;;;4991124;28;20045;-80
2022/05/16 15:41:15;;;;;;;14.65;8.27;;;;;;;;;;4988785;28;20101;-79